createdAt,value
2019-03-23T00:01:35.054Z,43.17
2019-03-23T00:04:07.172Z,46.33
2019-03-23T00:06:39.446Z,47.43
2019-03-23T00:09:12.444Z,45.57
2019-03-23T00:11:44.528Z,42.93
2019-03-23T00:14:16.923Z,44.20
2019-03-23T00:16:49.004Z,43.65
2019-03-23T00:19:21.448Z,43.67
2019-03-23T00:21:53.825Z,42.03
2019-03-23T00:24:27.066Z,42.30
2019-03-23T00:26:59.525Z,42.40
2019-03-23T00:29:31.730Z,47.83
2019-03-23T00:32:04.161Z,44.33
2019-03-23T00:34:36.190Z,44.37
2019-03-23T00:37:08.890Z,43.67
2019-03-23T00:46:18.638Z,41.43
2019-03-23T00:48:50.744Z,42.57
2019-03-23T00:51:22.824Z,40.10
2019-03-23T00:53:56.088Z,41.40
2019-03-23T00:56:28.151Z,39.57
2019-03-23T00:59:00.231Z,40.70
2019-03-23T01:01:40.537Z,40.93
2019-03-23T01:04:22.101Z,39.25
2019-03-23T01:06:54.382Z,38.92
2019-03-23T01:09:26.817Z,41.30
2019-03-23T01:12:02.538Z,38.03
2019-03-23T01:14:42.646Z,39.60
2019-03-23T01:17:16.395Z,38.13
2019-03-23T01:19:58.895Z,39.70
2019-03-23T01:22:32.664Z,40.50
2019-03-23T01:25:05.212Z,38.97
2019-03-23T01:27:41.244Z,39.10
2019-03-23T01:30:13.957Z,41.90
2019-03-23T01:32:46.633Z,40.47
2019-03-23T01:35:18.703Z,39.00
2019-03-23T01:37:51.431Z,38.67
2019-03-23T01:40:24.281Z,38.80
2019-03-23T01:42:58.071Z,37.08
2019-03-23T01:45:30.498Z,38.43
2019-03-23T01:48:02.584Z,38.23
2019-03-23T01:50:35.710Z,37.43
2019-03-23T01:53:11.104Z,37.97
2019-03-23T01:55:43.533Z,38.43
2019-03-23T01:58:15.646Z,39.33
2019-03-23T02:00:47.697Z,42.67
2019-03-23T02:03:19.803Z,41.07
2019-03-23T02:05:52.086Z,38.50
2019-03-23T02:08:24.221Z,37.95
2019-03-23T02:10:56.487Z,39.03
2019-03-23T02:13:29.054Z,40.67
2019-03-23T02:16:02.155Z,43.63
2019-03-23T02:18:34.642Z,46.47
2019-03-23T02:21:06.674Z,38.57
2019-03-23T02:23:38.803Z,32.57
2019-03-23T02:26:10.863Z,29.23
2019-03-23T02:28:43.259Z,27.63
2019-03-23T02:31:15.680Z,26.75
2019-03-23T02:33:47.747Z,26.73
2019-03-23T02:36:20.027Z,25.40
2019-03-23T02:38:52.595Z,25.13
2019-03-23T02:41:24.761Z,25.00
2019-03-23T02:43:57.470Z,25.20
2019-03-23T02:46:30.277Z,29.20
2019-03-23T02:49:02.375Z,27.63
2019-03-23T02:51:35.143Z,28.43
2019-03-23T02:54:07.709Z,31.77
2019-03-23T02:56:40.773Z,31.40
2019-03-23T02:59:13.206Z,31.40
2019-03-23T03:01:45.288Z,32.20
2019-03-23T03:04:17.702Z,34.57
2019-03-23T03:06:50.099Z,34.83
2019-03-23T03:09:22.240Z,36.87
2019-03-23T03:11:54.328Z,36.37
2019-03-23T03:14:26.438Z,36.63
2019-03-23T03:16:58.915Z,37.50
2019-03-23T03:19:31.359Z,37.23
2019-03-23T03:22:03.436Z,37.50
2019-03-23T03:24:35.902Z,46.90
2019-03-23T03:27:08.322Z,49.90
2019-03-23T03:29:40.395Z,50.10
2019-03-23T03:32:12.869Z,50.33
2019-03-23T03:34:44.984Z,53.40
2019-03-23T03:37:17.381Z,51.90
2019-03-23T03:39:49.853Z,48.17
2019-03-23T03:42:22.312Z,50.53
2019-03-23T03:44:54.880Z,52.80
2019-03-23T03:47:27.328Z,47.40
2019-03-23T03:49:59.404Z,53.13
2019-03-23T03:52:31.478Z,43.70
2019-03-23T03:55:03.614Z,41.50
2019-03-23T03:57:35.684Z,41.93
2019-03-23T04:00:08.323Z,38.67
2019-03-23T04:02:40.666Z,40.87
2019-03-23T04:05:13.286Z,38.53
2019-03-23T04:07:45.380Z,43.77
2019-03-23T04:10:17.519Z,47.00
2019-03-23T04:12:50.555Z,45.80
2019-03-23T04:15:22.733Z,44.33
2019-03-23T04:17:55.231Z,42.17
2019-03-23T04:20:27.379Z,55.17
2019-03-23T04:22:59.466Z,44.30
2019-03-23T04:25:31.617Z,60.37
2019-03-23T04:28:04.029Z,68.67
2019-03-23T04:30:36.382Z,77.83
2019-03-23T04:33:09.226Z,82.50
2019-03-23T04:35:41.456Z,78.23
2019-03-23T04:38:22.509Z,78.00
2019-03-23T04:40:48.330Z,68.57
2019-03-23T04:43:20.388Z,66.00
2019-03-23T04:45:53.186Z,59.93
2019-03-23T04:48:26.131Z,64.70
2019-03-23T04:50:58.595Z,70.90
2019-03-23T04:53:30.947Z,74.03
2019-03-23T04:56:03.499Z,69.32
2019-03-23T04:58:36.273Z,69.83
2019-03-23T05:01:08.652Z,71.13
2019-03-23T05:03:40.798Z,66.73
2019-03-23T05:06:12.894Z,64.83
2019-03-23T05:08:45.029Z,69.27
2019-03-23T05:11:17.129Z,80.20
2019-03-23T05:13:49.874Z,86.10
2019-03-23T05:16:22.671Z,67.97
2019-03-23T05:18:55.170Z,61.50
2019-03-23T05:21:27.208Z,66.22
2019-03-23T05:23:59.877Z,67.82
2019-03-23T05:26:32.327Z,60.60
2019-03-23T05:29:04.778Z,67.70
2019-03-23T05:31:37.122Z,57.40
2019-03-23T05:34:09.400Z,51.50
2019-03-23T05:36:42.406Z,53.85
2019-03-23T05:39:14.608Z,70.17
2019-03-23T05:41:47.071Z,71.72
2019-03-23T05:44:19.156Z,75.03
2019-03-23T05:46:51.235Z,79.83
2019-03-23T05:49:23.378Z,79.10
2019-03-23T05:51:56.446Z,80.17
2019-03-23T05:54:29.390Z,77.67
2019-03-23T05:57:01.854Z,76.30
2019-03-23T05:59:34.258Z,79.43
2019-03-23T06:02:06.759Z,77.20
2019-03-23T06:04:39.971Z,69.40
2019-03-23T06:07:12.292Z,68.40
2019-03-23T06:09:44.713Z,68.20
2019-03-23T06:12:17.780Z,67.13
2019-03-23T06:14:51.535Z,61.67
2019-03-23T06:17:23.929Z,58.07
2019-03-23T06:19:56.376Z,61.30
2019-03-23T06:22:28.477Z,62.83
2019-03-23T06:25:00.555Z,55.43
2019-03-23T06:27:33.086Z,58.27
2019-03-23T06:30:06.026Z,56.23
2019-03-23T06:32:38.490Z,55.20
2019-03-23T06:35:11.496Z,55.90
2019-03-23T06:37:44.985Z,58.00
2019-03-23T06:40:17.126Z,56.03
2019-03-23T06:42:59.156Z,56.70
2019-03-23T06:45:24.312Z,56.88
2019-03-23T06:47:56.835Z,60.28
2019-03-23T06:50:29.284Z,57.73
2019-03-23T06:53:01.724Z,57.30
2019-03-23T06:55:34.178Z,58.07
2019-03-23T06:58:06.721Z,60.58
2019-03-23T07:00:38.814Z,60.43
2019-03-23T07:03:11.041Z,61.83
2019-03-23T07:05:43.215Z,59.67
2019-03-23T07:08:16.219Z,63.08
2019-03-23T07:10:48.383Z,62.73
2019-03-23T07:13:20.499Z,61.98
2019-03-23T07:15:52.979Z,59.83
2019-03-23T07:18:25.791Z,61.23
2019-03-23T07:20:57.918Z,61.97
2019-03-23T07:23:30.762Z,59.03
2019-03-23T07:26:02.909Z,57.07
2019-03-23T07:28:34.985Z,55.50
2019-03-23T07:31:07.139Z,56.10
2019-03-23T07:33:39.280Z,54.57
2019-03-23T07:36:11.394Z,54.03
2019-03-23T07:38:43.896Z,50.77
2019-03-23T07:41:16.055Z,49.80
2019-03-23T07:43:48.495Z,52.33
2019-03-23T07:46:20.591Z,51.43
2019-03-23T07:48:52.719Z,48.85
2019-03-23T07:51:25.203Z,49.47
2019-03-23T07:53:58.208Z,48.02
2019-03-23T07:56:30.726Z,48.53
2019-03-23T07:59:03.451Z,46.80
2019-03-23T08:01:35.884Z,47.43
2019-03-23T08:04:08.101Z,49.90
2019-03-23T08:06:40.875Z,45.53
2019-03-23T08:09:20.414Z,46.07
2019-03-23T08:11:46.799Z,44.17
2019-03-23T08:14:19.285Z,47.50
2019-03-23T08:16:51.418Z,45.47
2019-03-23T08:19:24.139Z,45.95
2019-03-23T08:21:56.516Z,45.13
2019-03-23T08:24:28.987Z,41.50
2019-03-23T08:27:01.443Z,41.20
2019-03-23T08:29:34.232Z,40.67
2019-03-23T08:32:06.297Z,37.73
2019-03-23T08:34:38.720Z,37.77
2019-03-23T08:37:11.812Z,34.20
2019-03-23T08:39:48.677Z,37.13
2019-03-23T08:42:18.401Z,35.60
2019-03-23T08:44:51.024Z,33.17
2019-03-23T08:47:23.510Z,32.77
2019-03-23T08:49:55.965Z,33.17
2019-03-23T08:52:29.026Z,30.93
2019-03-23T08:55:01.602Z,31.40
2019-03-23T08:57:33.730Z,31.13
2019-03-23T09:00:06.894Z,29.57
2019-03-23T09:02:38.969Z,28.53
2019-03-23T09:05:11.356Z,31.37
2019-03-23T09:07:43.436Z,29.33
2019-03-23T09:10:15.845Z,29.57
2019-03-23T09:12:48.074Z,28.07
2019-03-23T09:15:20.172Z,27.83
2019-03-23T09:17:52.262Z,28.97
2019-03-23T09:20:24.654Z,28.23
2019-03-23T09:22:57.398Z,29.27
2019-03-23T09:25:30.334Z,28.47
2019-03-23T09:28:02.500Z,28.47
2019-03-23T09:30:34.642Z,28.00
2019-03-23T09:33:06.743Z,28.17
2019-03-23T09:35:39.474Z,27.10
2019-03-23T09:38:11.821Z,28.73
2019-03-23T09:40:43.881Z,28.60
2019-03-23T09:43:16.368Z,29.30
2019-03-23T09:45:48.844Z,29.20
2019-03-23T09:48:21.288Z,28.67
2019-03-23T09:50:53.436Z,29.20
2019-03-23T09:53:25.529Z,29.63
2019-03-23T09:55:57.737Z,29.63
2019-03-23T09:58:29.869Z,28.83
2019-03-23T10:01:02.183Z,28.12
2019-03-23T10:03:34.605Z,28.20
2019-03-23T10:06:07.428Z,27.87
2019-03-23T10:08:39.922Z,29.20
2019-03-23T10:11:12.351Z,28.60
2019-03-23T10:13:46.152Z,28.07
2019-03-23T10:16:18.848Z,27.73
2019-03-23T10:18:51.300Z,27.67
2019-03-23T10:21:23.389Z,27.50
2019-03-23T10:23:55.884Z,28.97
2019-03-23T10:26:28.437Z,29.70
2019-03-23T10:29:01.333Z,29.90
2019-03-23T10:31:33.430Z,28.27
2019-03-23T10:34:05.534Z,27.67
2019-03-23T10:36:37.702Z,28.33
2019-03-23T10:39:09.825Z,29.25
2019-03-23T10:41:41.903Z,28.70
2019-03-23T10:44:14.409Z,28.40
2019-03-23T10:46:46.536Z,30.33
2019-03-23T10:49:18.613Z,29.97
2019-03-23T10:51:50.739Z,28.80
2019-03-23T10:54:22.813Z,30.57
2019-03-23T10:56:55.238Z,29.12
2019-03-23T10:59:28.107Z,30.50
2019-03-23T11:02:00.271Z,29.23
2019-03-23T11:04:32.762Z,31.10
2019-03-23T11:07:05.578Z,31.93
2019-03-23T11:09:38.391Z,28.32
2019-03-23T11:12:10.909Z,28.90
2019-03-23T11:14:43.755Z,29.27
2019-03-23T11:17:15.866Z,29.50
2019-03-23T11:19:48.003Z,30.30
2019-03-23T11:22:20.840Z,27.27
2019-03-23T11:24:53.301Z,29.67
2019-03-23T11:27:25.701Z,27.90
2019-03-23T11:29:57.846Z,29.97
2019-03-23T11:32:30.656Z,29.43
2019-03-23T11:35:03.116Z,28.90
2019-03-23T11:37:35.280Z,29.83
2019-03-23T11:40:07.908Z,29.97
2019-03-23T11:42:49.314Z,29.57
2019-03-23T11:45:14.606Z,28.70
2019-03-23T11:47:47.391Z,29.97
2019-03-23T11:50:19.643Z,29.10
2019-03-23T11:52:51.834Z,27.97
2019-03-23T11:55:24.269Z,26.33
2019-03-23T11:57:56.715Z,27.30
2019-03-23T12:00:28.860Z,28.00
2019-03-23T12:03:01.346Z,27.03
2019-03-23T12:05:33.714Z,25.47
2019-03-23T12:08:05.861Z,24.03
2019-03-23T12:10:38.402Z,26.42
2019-03-23T12:13:11.006Z,27.87
2019-03-23T12:15:43.191Z,27.77
2019-03-23T12:18:15.862Z,27.10
2019-03-23T12:20:48.965Z,25.67
2019-03-23T12:23:21.116Z,26.07
2019-03-23T12:25:53.755Z,25.47
2019-03-23T12:28:27.089Z,25.17
2019-03-23T12:30:59.193Z,25.33
2019-03-23T12:33:31.590Z,25.17
2019-03-23T12:36:04.620Z,24.90
2019-03-23T12:38:36.812Z,24.63
2019-03-23T12:41:18.654Z,24.77
2019-03-23T12:43:42.770Z,23.93
2019-03-23T12:46:15.202Z,24.67
2019-03-23T12:48:47.335Z,23.23
2019-03-23T12:51:19.420Z,22.87
2019-03-23T12:53:52.501Z,22.20
2019-03-23T12:56:25.086Z,22.00
2019-03-23T12:58:57.275Z,22.73
2019-03-23T13:01:29.423Z,22.23
2019-03-23T13:04:01.524Z,22.20
2019-03-23T13:06:33.647Z,23.70
2019-03-23T13:09:07.760Z,25.37
2019-03-23T13:11:39.884Z,28.52
2019-03-23T13:14:12.398Z,28.20
2019-03-23T13:16:44.869Z,27.43
2019-03-23T13:19:16.998Z,27.17
2019-03-23T13:21:49.490Z,26.87
2019-03-23T13:24:22.732Z,27.73
2019-03-23T13:26:55.252Z,27.37
2019-03-23T13:29:27.683Z,30.17
2019-03-23T13:32:00.168Z,27.43
2019-03-23T13:34:32.278Z,30.10
2019-03-23T13:37:04.790Z,30.80
2019-03-23T13:39:37.268Z,30.40
2019-03-23T13:42:09.564Z,33.03
2019-03-23T13:44:42.029Z,29.32
2019-03-23T13:47:14.524Z,25.75
2019-03-23T13:49:46.765Z,24.13
2019-03-23T13:52:18.857Z,25.40
2019-03-23T13:54:51.905Z,25.77
2019-03-23T13:57:24.716Z,25.83
2019-03-23T13:59:57.518Z,25.40
2019-03-23T14:02:30.384Z,26.57
2019-03-23T14:05:02.930Z,26.63
2019-03-23T14:07:35.148Z,26.33
2019-03-23T14:10:07.951Z,26.57
2019-03-23T14:12:40.093Z,29.93
2019-03-23T14:15:12.729Z,28.10
2019-03-23T14:17:45.497Z,27.90
2019-03-23T14:20:17.856Z,27.87
2019-03-23T14:22:50.628Z,29.07
2019-03-23T14:25:23.552Z,28.50
2019-03-23T14:27:56.049Z,26.83
2019-03-23T14:30:28.611Z,26.90
2019-03-23T14:33:00.888Z,27.50
2019-03-23T14:35:32.961Z,26.30
2019-03-23T14:38:05.432Z,26.70
2019-03-23T14:40:37.567Z,25.60
2019-03-23T14:43:10.239Z,26.42
2019-03-23T14:45:42.698Z,26.27
2019-03-23T14:48:14.935Z,25.70
2019-03-23T14:50:47.061Z,26.30
2019-03-23T14:53:19.537Z,25.20
2019-03-23T14:55:52.861Z,25.63
2019-03-23T14:58:24.963Z,26.50
2019-03-23T15:00:57.067Z,25.90
2019-03-23T15:03:29.194Z,25.00
2019-03-23T15:06:01.964Z,25.03
2019-03-23T15:08:34.470Z,25.60
2019-03-23T15:11:07.276Z,26.27
2019-03-23T15:13:39.806Z,24.83
2019-03-23T15:16:11.983Z,25.77
2019-03-23T15:18:44.516Z,25.57
2019-03-23T15:21:16.623Z,25.97
2019-03-23T15:23:49.612Z,26.50
2019-03-23T15:26:22.430Z,25.30
2019-03-23T15:28:54.520Z,25.97
2019-03-23T15:31:26.632Z,26.17
2019-03-23T15:33:58.741Z,25.53
2019-03-23T15:36:30.870Z,26.43
2019-03-23T15:39:04.606Z,27.50
2019-03-23T15:41:36.792Z,26.70
2019-03-23T15:44:11.767Z,30.00
2019-03-23T15:46:44.207Z,26.87
2019-03-23T15:49:16.347Z,26.07
2019-03-23T15:51:49.060Z,26.03
2019-03-23T15:54:21.497Z,26.77
2019-03-23T15:56:53.688Z,24.92
2019-03-23T15:59:26.565Z,25.97
2019-03-23T16:01:59.234Z,24.83
2019-03-23T16:04:31.409Z,25.20
2019-03-23T16:07:06.917Z,23.80
2019-03-23T16:09:39.051Z,24.50
2019-03-23T16:12:11.662Z,24.20
2019-03-23T16:14:44.193Z,25.40
2019-03-23T16:17:16.875Z,24.93
2019-03-23T16:19:49.650Z,24.50
2019-03-23T16:22:21.784Z,25.77
2019-03-23T16:24:54.383Z,25.23
2019-03-23T16:27:26.526Z,25.57
2019-03-23T16:29:59.426Z,25.43
2019-03-23T16:32:32.266Z,26.23
2019-03-23T16:35:05.345Z,25.83
2019-03-23T16:37:37.436Z,25.60
2019-03-23T16:40:13.462Z,25.13
2019-03-23T16:42:45.904Z,29.03
2019-03-23T16:45:18.631Z,27.33
2019-03-23T16:47:50.866Z,27.55
2019-03-23T16:50:23.028Z,25.97
2019-03-23T16:52:55.137Z,26.23
2019-03-23T16:55:27.219Z,26.33
2019-03-23T16:57:59.470Z,26.87
2019-03-23T17:00:39.129Z,25.40
2019-03-23T17:03:11.611Z,26.53
2019-03-23T17:05:43.815Z,26.20
2019-03-23T17:08:16.241Z,26.57
2019-03-23T17:10:48.383Z,27.60
2019-03-23T17:13:21.143Z,26.30
2019-03-23T17:15:53.284Z,26.53
2019-03-23T17:18:25.409Z,26.33
2019-03-23T17:20:57.614Z,25.55
2019-03-23T17:23:29.783Z,27.00
2019-03-23T17:26:01.956Z,26.63
2019-03-23T17:28:34.084Z,26.47
2019-03-23T17:31:06.216Z,25.63
2019-03-23T17:33:38.312Z,26.47
2019-03-23T17:36:10.457Z,24.70
2019-03-23T17:38:42.558Z,26.93
2019-03-23T17:41:14.642Z,26.77
2019-03-23T17:43:47.617Z,26.23
2019-03-23T17:46:20.135Z,27.50
2019-03-23T17:48:52.236Z,26.60
2019-03-23T17:51:24.501Z,26.50
2019-03-23T17:53:58.759Z,28.57
2019-03-23T17:56:31.003Z,29.07
2019-03-23T17:59:03.198Z,29.72
2019-03-23T18:01:36.004Z,31.57
2019-03-23T18:04:08.457Z,30.73
2019-03-23T18:06:41.237Z,29.63
2019-03-23T18:09:13.410Z,30.13
2019-03-23T18:11:45.506Z,31.63
2019-03-23T18:14:18.539Z,30.97
2019-03-23T18:16:50.626Z,30.37
2019-03-23T18:19:22.770Z,30.93
2019-03-23T18:21:55.310Z,31.43
2019-03-23T18:24:27.400Z,31.77
2019-03-23T18:27:01.487Z,30.47
2019-03-23T18:29:33.661Z,31.27
2019-03-23T18:32:05.781Z,30.13
2019-03-23T18:34:37.910Z,30.83
2019-03-23T18:37:10.078Z,30.77
2019-03-23T18:39:42.488Z,34.53
2019-03-23T18:42:14.585Z,42.17
2019-03-23T18:44:46.758Z,33.27
2019-03-23T18:47:19.645Z,31.87
2019-03-23T18:49:51.714Z,31.70
2019-03-23T18:52:24.190Z,30.10
2019-03-23T18:54:56.513Z,31.30
2019-03-23T18:57:28.972Z,30.53
2019-03-23T19:00:01.151Z,28.27
2019-03-23T19:02:33.530Z,28.77
2019-03-23T19:05:06.327Z,26.87
2019-03-23T19:07:38.780Z,26.93
2019-03-23T19:10:11.196Z,26.17
2019-03-23T19:12:43.648Z,24.80
2019-03-23T19:15:15.830Z,22.50
2019-03-23T19:17:47.946Z,22.20
2019-03-23T19:20:20.038Z,23.97
2019-03-23T19:22:52.245Z,23.37
2019-03-23T19:25:24.689Z,23.97
2019-03-23T19:27:56.918Z,22.13
2019-03-23T19:36:59.965Z,26.40
2019-03-23T19:39:32.867Z,26.03
2019-03-23T19:42:05.367Z,27.30
2019-03-23T19:44:38.824Z,25.45
2019-03-23T19:47:10.908Z,27.60
2019-03-23T19:49:42.995Z,26.05
2019-03-23T19:52:15.113Z,26.23
2019-03-23T19:54:47.554Z,25.67
2019-03-23T19:57:19.958Z,26.33
2019-03-23T19:59:52.285Z,26.95
2019-03-23T20:02:24.534Z,24.37
2019-03-23T20:04:56.589Z,28.03
2019-03-23T20:07:33.065Z,26.77
2019-03-23T20:10:03.604Z,26.57
2019-03-23T20:12:36.345Z,26.60
2019-03-23T20:15:09.671Z,27.07
2019-03-23T20:17:41.739Z,26.40
2019-03-23T20:20:14.686Z,27.13
2019-03-23T20:22:47.129Z,27.67
2019-03-23T20:25:19.239Z,26.50
2019-03-23T20:27:52.009Z,26.77
2019-03-23T20:30:24.615Z,26.30
2019-03-23T20:32:56.714Z,25.60
2019-03-23T20:35:28.806Z,26.25
2019-03-23T20:38:01.343Z,26.23
2019-03-23T20:40:33.798Z,25.60
2019-03-23T20:43:05.865Z,24.73
2019-03-23T20:45:37.993Z,24.57
2019-03-23T20:48:10.181Z,25.00
2019-03-23T20:50:43.364Z,25.10
2019-03-23T20:53:19.042Z,25.30
2019-03-23T20:55:51.130Z,26.37
2019-03-23T20:58:23.198Z,26.93
2019-03-23T21:00:55.645Z,24.60
2019-03-23T21:03:27.733Z,25.70
2019-03-23T21:05:59.839Z,25.23
2019-03-23T21:08:31.950Z,26.20
2019-03-23T21:11:04.218Z,25.97
2019-03-23T21:13:36.308Z,26.83
2019-03-23T21:16:08.466Z,26.60
2019-03-23T21:18:40.559Z,25.37
2019-03-23T21:21:12.911Z,25.50
2019-03-23T21:23:45.436Z,26.40
2019-03-23T21:26:17.869Z,27.30
2019-03-23T21:28:50.094Z,28.37
2019-03-23T21:31:22.613Z,29.83
2019-03-23T21:33:54.720Z,27.80
2019-03-23T21:36:26.912Z,30.80
2019-03-23T21:38:59.425Z,35.87
2019-03-23T21:41:31.510Z,36.80
2019-03-23T21:44:03.602Z,29.73
2019-03-23T21:46:35.841Z,26.33
2019-03-23T21:49:07.918Z,26.00
2019-03-23T21:51:40.452Z,29.97
2019-03-23T21:54:12.686Z,39.80
2019-03-23T21:56:45.085Z,31.40
2019-03-23T21:59:17.608Z,47.63
2019-03-23T22:01:50.032Z,53.47
2019-03-23T22:04:22.193Z,51.27
2019-03-23T22:06:54.301Z,31.70
2019-03-23T22:09:26.745Z,26.70
2019-03-23T22:11:59.822Z,28.93
2019-03-23T22:14:41.296Z,27.97
2019-03-23T22:17:06.092Z,21.67
2019-03-23T22:19:38.148Z,21.50
2019-03-23T22:22:10.240Z,20.47
2019-03-23T22:24:42.544Z,19.47
2019-03-23T22:27:14.718Z,18.97
2019-03-23T22:29:47.183Z,17.85
2019-03-23T22:32:19.276Z,18.13
2019-03-23T22:34:51.743Z,18.63
2019-03-23T22:37:23.816Z,18.70
2019-03-23T22:39:56.006Z,18.03
2019-03-23T22:42:28.232Z,19.07
2019-03-23T22:45:00.965Z,17.90
2019-03-23T22:47:33.325Z,17.50
2019-03-23T22:50:06.189Z,15.75
2019-03-23T22:52:38.387Z,15.20
2019-03-23T22:55:11.130Z,15.23
2019-03-23T22:57:43.562Z,15.03
2019-03-23T23:00:19.064Z,14.77
2019-03-23T23:02:51.540Z,14.10
2019-03-23T23:05:23.600Z,12.53
2019-03-23T23:07:55.687Z,12.90
2019-03-23T23:10:28.115Z,12.93
2019-03-23T23:13:00.562Z,11.13
2019-03-23T23:15:33.077Z,11.53
2019-03-23T23:18:05.748Z,11.63
2019-03-23T23:20:37.841Z,10.60
2019-03-23T23:23:16.472Z,12.10
2019-03-23T23:25:56.992Z,11.07
2019-03-23T23:28:34.181Z,10.45
2019-03-23T23:31:07.883Z,10.73
2019-03-23T23:33:40.361Z,10.33
2019-03-23T23:36:15.097Z,10.80
2019-03-23T23:38:52.452Z,9.57
2019-03-23T23:41:28.077Z,10.40
2019-03-23T23:44:01.323Z,10.10
2019-03-23T23:46:37.990Z,9.80
2019-03-23T23:49:11.918Z,8.78
2019-03-23T23:51:50.131Z,9.93
2019-03-23T23:54:19.766Z,9.83
2019-03-23T23:56:53.254Z,8.80
2019-03-23T23:59:27.689Z,9.50
